Time;durP1;ratioP1;P1;durP2;ratioP2;P2;SDS_P1;SDS_P2;PMS_P1;PMS_P2;Temp;Humidity;BMP_temperature;BMP_pressure;BME280_temperature;BME280_humidity;BME280_pressure;Samples;Min_cycle;Max_cycle;Signal;HPM_P1;HPM_P2
2023/10/30 00:02:22;;;;;;;4.53;1.30;;;;;;;21.49;56.74;96445.09;5113650;28;20023;-31
2023/10/30 00:04:48;;;;;;;5.10;1.33;;;;;;;21.56;56.62;96441.09;5105236;28;20068;-32
2023/10/30 00:07:13;;;;;;;4.10;1.38;;;;;;;21.71;56.24;96435.34;5113260;28;20024;-31
2023/10/30 00:09:39;;;;;;;2.97;1.00;;;;;;;21.90;56.14;96438.38;5113255;28;20015;-31
2023/10/30 00:12:05;;;;;;;4.20;1.23;;;;;;;21.85;55.71;96442.66;5112216;28;20539;-32
2023/10/30 00:14:31;;;;;;;6.25;1.60;;;;;;;21.90;55.71;96441.13;5113259;28;20016;-31
2023/10/30 00:16:57;;;;;;;4.65;1.50;;;;;;;21.98;55.73;96433.88;5112631;28;20059;-32
2023/10/30 00:19:22;;;;;;;4.13;1.25;;;;;;;21.86;55.91;96430.34;5112910;28;20096;-31
2023/10/30 00:21:47;;;;;;;2.50;1.20;;;;;;;21.80;56.00;96433.09;5107017;28;20024;-32
2023/10/30 00:24:13;;;;;;;4.07;1.30;;;;;;;21.95;56.11;96438.38;5111043;28;20023;-31
2023/10/30 00:26:39;;;;;;;6.28;1.20;;;;;;;21.98;55.65;96436.63;5113317;28;20019;-31
2023/10/30 00:29:05;;;;;;;4.82;1.80;;;;;;;21.88;55.79;96443.66;5112525;28;20536;-32
2023/10/30 00:31:30;;;;;;;6.18;1.42;;;;;;;21.86;56.18;96436.63;5110044;28;20028;-31
2023/10/30 00:33:55;;;;;;;5.28;1.23;;;;;;;21.85;56.29;96442.66;5108071;28;20490;-31
2023/10/30 00:36:21;;;;;;;4.82;1.35;;;;;;;22.00;55.61;96437.66;5104310;28;20023;-31
2023/10/30 00:38:47;;;;;;;3.22;1.60;;;;;;;21.79;56.86;96437.09;5106277;28;20016;-31
2023/10/30 00:41:12;;;;;;;5.15;1.15;;;;;;;21.92;56.13;96435.84;5105712;27;20026;-31
2023/10/30 00:43:38;;;;;;;4.57;1.20;;;;;;;21.98;56.17;96433.88;5111528;28;20034;-31
2023/10/30 00:46:06;;;;;;;5.40;1.40;;;;;;;21.91;56.30;96435.09;5105764;28;20043;-31
2023/10/30 00:48:35;;;;;;;5.20;1.50;;;;;;;21.93;56.45;96429.84;5104380;28;20023;-31
2023/10/30 00:51:01;;;;;;;5.53;1.30;;;;;;;21.93;56.68;96434.59;5112472;28;20049;-31
2023/10/30 00:53:26;;;;;;;7.95;1.52;;;;;;;21.88;56.50;96424.34;5112208;28;20060;-31
2023/10/30 00:55:52;;;;;;;4.20;1.40;;;;;;;21.96;56.51;96436.38;5104648;28;20023;-31
2023/10/30 00:58:18;;;;;;;4.50;1.30;;;;;;;21.86;56.63;96428.34;5107082;28;20016;-31
2023/10/30 01:00:43;;;;;;;6.45;1.48;;;;;;;21.79;57.23;96417.78;5108257;28;20023;-31
2023/10/30 01:03:09;;;;;;;5.32;1.38;;;;;;;22.02;56.30;96415.81;5102212;28;20027;-31
2023/10/30 01:05:34;;;;;;;8.85;1.15;;;;;;;22.03;56.36;96403.50;5107206;28;20023;-31
2023/10/30 01:08:00;;;;;;;5.93;1.67;;;;;;;21.57;57.58;96397.69;5111259;28;20097;-31
2023/10/30 01:10:26;;;;;;;6.07;1.70;;;;;;;21.82;57.20;96408.50;5112481;28;20019;-32
2023/10/30 01:12:51;;;;;;;4.20;1.52;;;;;;;21.83;57.10;96410.00;5111157;28;20027;-33
2023/10/30 01:15:17;;;;;;;5.30;1.35;;;;;;;22.00;56.45;96401.00;5111275;28;20011;-32
2023/10/30 01:17:42;;;;;;;3.50;1.33;;;;;;;21.69;57.33;96397.19;5104942;28;20020;-31
2023/10/30 01:20:09;;;;;;;5.93;1.30;;;;;;;21.93;56.93;96398.72;5111014;28;20023;-31
2023/10/30 01:22:34;;;;;;;5.80;1.45;;;;;;;21.90;56.78;96403.22;5105022;28;20359;-31
2023/10/30 01:25:00;;;;;;;4.10;1.52;;;;;;;21.84;57.15;96394.97;5111780;28;20025;-31
2023/10/30 01:27:25;;;;;;;7.15;1.40;;;;;;;21.81;57.31;96393.19;5111086;28;20024;-31
2023/10/30 01:29:51;;;;;;;3.22;1.23;;;;;;;21.99;56.67;96394.75;5111772;28;20096;-31
2023/10/30 01:32:16;;;;;;;4.45;1.30;;;;;;;21.92;57.10;96388.91;5110742;28;20019;-32
2023/10/30 01:34:43;;;;;;;5.32;2.10;;;;;;;21.81;57.54;96390.44;5106694;28;20026;-31
2023/10/30 01:37:09;;;;;;;3.55;1.27;;;;;;;21.96;57.10;96389.44;5107197;28;20099;-31
2023/10/30 01:39:36;;;;;;;4.68;1.50;;;;;;;21.83;57.82;96378.88;5108807;28;20038;-31
2023/10/30 01:42:02;;;;;;;4.10;1.13;;;;;;;21.54;58.71;96376.59;5101426;28;20046;-31
2023/10/30 01:44:27;;;;;;;5.03;1.42;;;;;;;21.99;57.11;96382.94;5108913;28;20525;-31
2023/10/30 01:46:53;;;;;;;3.60;1.23;;;;;;;21.97;57.45;96380.66;5103571;28;20027;-31
2023/10/30 01:49:18;;;;;;;6.65;1.30;;;;;;;21.91;57.29;96381.88;5111633;28;20022;-31
2023/10/30 01:51:45;;;;;;;6.75;1.25;;;;;;;21.88;57.47;96381.63;5102333;28;20038;-31
2023/10/30 01:54:10;;;;;;;2.00;1.20;;;;;;;21.98;56.88;96381.41;5105939;28;20039;-31
2023/10/30 01:56:36;;;;;;;2.75;1.23;;;;;;;21.91;57.44;96385.41;5103546;28;20023;-31
2023/10/30 01:59:02;;;;;;;4.30;1.27;;;;;;;21.90;57.32;96381.13;5096911;28;20019;-31
2023/10/30 02:01:28;;;;;;;5.40;1.30;;;;;;;21.92;57.20;96375.13;5104570;28;20043;-31
2023/10/30 02:03:55;;;;;;;6.15;1.65;;;;;;;21.83;57.34;96367.84;5096393;28;20047;-31
2023/10/30 02:06:20;;;;;;;3.72;1.23;;;;;;;22.00;56.83;96365.13;5111649;28;20023;-31
2023/10/30 02:08:46;;;;;;;5.05;1.23;;;;;;;21.88;57.31;96361.59;5110716;28;20080;-31
2023/10/30 02:11:12;;;;;;;1.60;0.95;;;;;;;21.90;56.67;96364.56;5110972;28;20027;-31
2023/10/30 02:13:37;;;;;;;3.08;1.10;;;;;;;21.88;56.81;96363.59;5111540;28;20023;-32
2023/10/30 02:16:03;;;;;;;11.00;1.48;;;;;;;21.74;57.17;96360.59;5109542;28;20023;-31
2023/10/30 02:18:28;;;;;;;4.78;1.25;;;;;;;21.75;56.88;96358.56;5105120;28;20018;-32
2023/10/30 02:20:54;;;;;;;6.90;1.20;;;;;;;21.88;56.57;96355.31;5111334;28;20080;-32
2023/10/30 02:23:19;;;;;;;5.60;1.15;;;;;;;21.82;56.73;96358.06;5103603;28;20024;-31
2023/10/30 02:25:44;;;;;;;5.20;1.25;;;;;;;21.84;56.16;96348.03;5111224;28;20036;-31
2023/10/30 02:28:11;;;;;;;5.78;1.38;;;;;;;21.92;55.72;96344.75;5104602;28;20041;-31
2023/10/30 02:30:36;;;;;;;6.38;1.33;;;;;;;21.60;56.69;96347.78;5115382;28;20023;-31
2023/10/30 02:33:02;;;;;;;4.38;1.30;;;;;;;21.69;56.35;96344.00;5108107;28;20028;-31
2023/10/30 02:35:27;;;;;;;3.63;1.38;;;;;;;21.61;56.24;96346.53;5099552;28;20024;-32
2023/10/30 02:37:53;;;;;;;4.20;1.20;;;;;;;21.48;56.26;96341.50;5115344;28;20475;-31
2023/10/30 02:40:18;;;;;;;6.07;1.45;;;;;;;21.66;56.01;96345.00;5107203;28;20054;-31
2023/10/30 02:42:44;;;;;;;2.42;1.10;;;;;;;21.73;55.49;96344.53;5107682;28;20410;-31
2023/10/30 02:45:09;;;;;;;5.13;1.20;;;;;;;21.43;56.18;96344.25;5109440;28;20095;-31
2023/10/30 02:47:35;;;;;;;5.85;1.02;;;;;;;21.75;55.19;96348.28;5112992;28;20028;-31
2023/10/30 02:50:01;;;;;;;3.35;1.20;;;;;;;21.78;55.04;96352.03;5111140;28;20027;-31
2023/10/30 02:52:28;;;;;;;4.75;1.13;;;;;;;21.63;55.16;96355.06;5111654;28;20016;-32
2023/10/30 02:54:53;;;;;;;2.42;1.10;;;;;;;21.61;54.73;96348.53;5107422;28;20506;-31
2023/10/30 02:57:19;;;;;;;4.13;1.23;;;;;;;21.77;54.76;96345.75;5114802;28;20012;-31
2023/10/30 02:59:44;;;;;;;4.78;2.10;;;;;;;21.79;54.11;96357.06;5106341;28;20108;-31
2023/10/30 03:02:10;;;;;;;5.47;1.20;;;;;;;21.69;54.67;96353.03;5107315;28;20026;-32
2023/10/30 03:04:35;;;;;;;4.07;1.30;;;;;;;21.67;54.86;96344.50;5107843;28;20032;-31
2023/10/30 03:07:01;;;;;;;6.10;1.17;;;;;;;21.74;54.30;96348.78;5113347;28;20045;-31
2023/10/30 03:09:29;;;;;;;4.97;1.85;;;;;;;21.49;55.01;96348.53;5107628;28;20053;-31
2023/10/30 03:11:55;;;;;;;2.45;1.10;;;;;;;21.73;54.52;96341.75;5113566;28;20035;-31
2023/10/30 03:14:20;;;;;;;3.10;1.10;;;;;;;21.80;53.84;96336.47;5114658;28;20011;-31
2023/10/30 03:16:46;;;;;;;5.53;1.45;;;;;;;21.78;54.73;96327.94;5107696;28;20016;-31
2023/10/30 03:19:11;;;;;;;4.45;1.63;;;;;;;21.62;54.73;96323.19;5112969;28;20027;-31
2023/10/30 03:21:37;;;;;;;7.22;1.63;;;;;;;21.60;54.55;96320.19;5109762;28;20028;-31
2023/10/30 03:24:03;;;;;;;3.83;1.10;;;;;;;21.80;54.09;96325.44;5111144;28;20493;-31
2023/10/30 03:26:29;;;;;;;3.92;1.15;;;;;;;21.67;54.36;96322.44;5111313;28;20059;-31
2023/10/30 03:28:55;;;;;;;4.30;1.13;;;;;;;21.68;54.57;96325.94;5109962;28;20507;-31
2023/10/30 03:31:20;;;;;;;6.97;1.58;;;;;;;21.66;54.28;96314.66;5110925;28;20015;-31
2023/10/30 03:33:46;;;;;;;6.07;1.20;;;;;;;21.67;54.69;96319.66;5108141;28;20402;-31
2023/10/30 03:36:18;;;;;;;3.03;1.05;;;;;;;21.67;54.54;96311.38;5106362;28;20028;-31
2023/10/30 03:38:44;;;;;;;3.25;1.20;;;;;;;21.66;54.29;96323.69;5106323;28;20072;-31
2023/10/30 03:41:10;;;;;;;3.47;1.20;;;;;;;21.61;54.32;96316.16;5106661;28;20019;-32
2023/10/30 03:43:35;;;;;;;4.85;1.20;;;;;;;21.41;54.90;96311.63;5105964;28;20029;-31
2023/10/30 03:46:00;;;;;;;3.60;1.27;;;;;;;21.75;54.06;96308.91;5105728;28;20455;-31
2023/10/30 03:48:26;;;;;;;3.53;1.10;;;;;;;21.59;54.42;96309.66;5104864;28;20015;-32
2023/10/30 03:50:51;;;;;;;5.57;1.23;;;;;;;21.68;54.47;96312.16;5111674;28;20019;-31
2023/10/30 03:53:17;;;;;;;3.15;1.00;;;;;;;21.57;54.61;96299.09;5113641;28;20082;-31
2023/10/30 03:55:42;;;;;;;2.13;0.90;;;;;;;21.60;54.22;96309.16;5098377;28;20017;-31
2023/10/30 03:58:08;;;;;;;4.18;1.13;;;;;;;21.79;54.15;96307.38;5102516;28;20467;-32
2023/10/30 04:00:33;;;;;;;1.55;1.10;;;;;;;21.76;54.58;96299.34;5110357;28;20391;-31
2023/10/30 04:02:58;;;;;;;4.13;1.20;;;;;;;21.72;54.74;96302.38;5110780;28;20019;-31
2023/10/30 04:05:24;;;;;;;4.30;1.08;;;;;;;21.74;54.35;96304.63;5103199;28;20024;-31
2023/10/30 04:07:49;;;;;;;3.13;1.20;;;;;;;21.86;54.27;96303.34;5103357;28;20024;-31
2023/10/30 04:10:15;;;;;;;3.97;1.38;;;;;;;21.77;54.11;96298.81;5113455;28;20027;-32
2023/10/30 04:12:40;;;;;;;3.00;1.10;;;;;;;21.71;54.45;96311.91;5113353;28;20404;-31
2023/10/30 04:15:07;;;;;;;3.97;1.13;;;;;;;21.91;53.81;96310.84;5112044;28;20062;-31
2023/10/30 04:17:32;;;;;;;4.10;0.90;;;;;;;21.83;53.98;96310.63;5106007;28;20409;-31
2023/10/30 04:19:57;;;;;;;4.07;1.25;;;;;;;21.90;53.49;96309.34;5112414;28;20030;-31
2023/10/30 04:22:23;;;;;;;12.32;1.63;;;;;;;21.81;53.96;96307.63;5105909;28;20542;-31
2023/10/30 04:24:48;;;;;;;3.47;1.25;;;;;;;21.88;53.77;96313.91;5112864;28;20026;-32
2023/10/30 04:27:14;;;;;;;4.80;1.40;;;;;;;21.83;53.60;96313.38;5111790;27;20042;-31
2023/10/30 04:29:41;;;;;;;4.22;0.80;;;;;;;21.79;53.68;96309.38;5112957;28;20058;-31
2023/10/30 04:32:07;;;;;;;3.00;1.25;;;;;;;21.85;53.58;96310.88;5105732;28;20024;-32
2023/10/30 04:34:33;;;;;;;4.07;1.00;;;;;;;21.79;53.24;96307.38;5102430;28;20498;-32
2023/10/30 04:36:58;;;;;;;4.32;1.45;;;;;;;21.90;53.22;96309.34;5106235;28;20386;-31
2023/10/30 04:39:24;;;;;;;3.28;1.20;;;;;;;21.88;53.48;96303.59;5110969;28;20030;-32
2023/10/30 04:41:49;;;;;;;2.28;1.10;;;;;;;21.82;53.45;96302.84;5105842;28;20142;-31
2023/10/30 04:44:15;;;;;;;3.05;1.25;;;;;;;21.84;53.09;96309.38;5111428;28;20027;-31
2023/10/30 04:46:40;;;;;;;4.18;1.55;;;;;;;21.77;53.01;96306.34;5103168;28;20034;-31
2023/10/30 04:49:06;;;;;;;4.00;1.27;;;;;;;21.93;52.72;96307.59;5107037;28;20015;-31
2023/10/30 04:51:31;;;;;;;2.95;1.17;;;;;;;21.81;53.17;96301.34;5103620;28;20012;-31
2023/10/30 04:53:57;;;;;;;2.35;0.90;;;;;;;21.91;52.81;96288.78;5104717;28;20422;-32
2023/10/30 04:56:22;;;;;;;3.88;1.33;;;;;;;21.95;52.79;96288.53;5105405;28;20012;-31
2023/10/30 04:58:48;;;;;;;2.38;1.08;;;;;;;21.88;53.08;96296.03;5096873;28;20023;-31
2023/10/30 05:01:13;;;;;;;5.72;1.00;;;;;;;21.75;53.03;96287.56;5111069;28;20024;-31
2023/10/30 05:03:39;;;;;;;3.63;1.23;;;;;;;21.80;52.68;96295.06;5105164;28;20033;-31
2023/10/30 05:06:05;;;;;;;3.22;0.88;;;;;;;21.83;52.81;96291.31;5105014;28;20027;-31
2023/10/30 05:08:31;;;;;;;3.60;1.50;;;;;;;21.83;53.00;96301.59;5111977;28;20078;-31
2023/10/30 05:10:59;;;;;;;4.10;1.13;;;;;;;21.83;53.14;96293.31;5111166;28;20019;-31
2023/10/30 05:13:25;;;;;;;2.67;0.85;;;;;;;21.94;52.49;96295.28;5112255;28;20027;-31
2023/10/30 05:15:50;;;;;;;4.95;1.48;;;;;;;21.75;52.74;96284.81;5112061;28;20069;-31
2023/10/30 05:18:21;;;;;;;4.85;1.42;;;;;;;21.65;53.73;96278.00;5103741;28;20482;-32
2023/10/30 05:20:47;;;;;;;2.47;0.98;;;;;;;21.73;53.46;96273.50;5111972;28;20023;-31
2023/10/30 05:23:12;;;;;;;4.72;1.42;;;;;;;21.83;52.80;96271.97;5103651;28;20031;-31
2023/10/30 05:25:38;;;;;;;2.88;1.00;;;;;;;21.62;53.44;96270.75;5112146;28;20023;-31
2023/10/30 05:28:03;;;;;;;3.88;1.05;;;;;;;21.83;52.97;96274.00;5104375;28;20459;-32
2023/10/30 05:30:30;;;;;;;4.05;1.30;;;;;;;21.70;52.80;96271.00;5111342;28;20012;-31
2023/10/30 05:32:56;;;;;;;3.38;1.30;;;;;;;21.76;52.78;96261.44;5104786;28;20019;-31
2023/10/30 05:35:22;;;;;;;5.03;1.58;;;;;;;21.61;53.01;96266.50;5103331;27;20027;-31
2023/10/30 05:37:47;;;;;;;3.70;1.15;;;;;;;21.75;52.66;96259.97;5104680;28;20059;-31
2023/10/30 05:40:13;;;;;;;4.72;1.30;;;;;;;21.71;53.03;96255.94;5104541;28;20020;-31
2023/10/30 05:42:38;;;;;;;6.97;1.30;;;;;;;21.70;52.45;96257.94;5110723;28;20113;-31
2023/10/30 05:45:04;;;;;;;3.95;0.98;;;;;;;21.81;52.54;96263.44;5106724;28;20024;-31
2023/10/30 05:47:30;;;;;;;5.85;1.35;;;;;;;21.67;52.61;96253.44;5101926;28;20024;-32
2023/10/30 05:49:56;;;;;;;5.80;1.00;;;;;;;21.78;52.28;96258.19;5111573;28;20035;-31
2023/10/30 05:52:21;;;;;;;1.92;1.10;;;;;;;21.52;53.40;96255.69;5111534;28;20023;-31
2023/10/30 05:54:47;;;;;;;3.45;1.08;;;;;;;21.62;53.18;96250.69;5110204;28;20072;-31
2023/10/30 05:57:13;;;;;;;3.50;1.65;;;;;;;21.59;52.92;96257.22;5111890;28;20069;-31
2023/10/30 05:59:38;;;;;;;3.60;1.55;;;;;;;21.53;53.49;96265.47;5103485;28;20437;-31
2023/10/30 06:02:05;;;;;;;2.53;1.45;;;;;;;21.61;52.97;96260.97;5105612;28;20103;-31
2023/10/30 06:04:30;;;;;;;3.28;1.40;;;;;;;21.74;52.95;96269.50;5108979;28;20099;-31
2023/10/30 06:06:56;;;;;;;4.32;1.35;;;;;;;21.85;52.79;96258.44;5114725;28;20099;-31
2023/10/30 06:09:21;;;;;;;8.20;1.50;;;;;;;21.62;53.11;96270.00;5108781;28;20012;-31
2023/10/30 06:11:48;;;;;;;4.05;1.48;;;;;;;21.72;52.96;96272.00;5108493;28;20417;-31
2023/10/30 06:14:14;;;;;;;5.95;1.30;;;;;;;21.92;52.49;96284.00;5108250;28;20043;-31
2023/10/30 06:16:40;;;;;;;8.02;1.85;;;;;;;21.82;52.89;96287.03;5109606;28;20472;-31
2023/10/30 06:19:06;;;;;;;3.28;1.50;;;;;;;21.87;52.75;96288.28;5113426;28;20019;-31
2023/10/30 06:21:32;;;;;;;4.85;1.35;;;;;;;21.86;52.87;96298.59;5111492;28;20077;-31
2023/10/30 06:23:57;;;;;;;4.15;1.25;;;;;;;21.75;53.17;96314.41;5112266;28;20026;-31
2023/10/30 06:26:22;;;;;;;4.65;1.33;;;;;;;21.93;52.60;96308.34;5112683;27;20027;-31
2023/10/30 06:28:48;;;;;;;4.28;1.30;;;;;;;21.79;52.60;96309.38;5110298;28;20030;-31
2023/10/30 06:31:17;;;;;;;3.03;1.30;;;;;;;21.69;52.90;96295.09;5114048;28;20038;-33
2023/10/30 06:33:43;;;;;;;2.28;0.93;;;;;;;21.68;52.77;96303.88;5115260;28;20023;-31
2023/10/30 06:36:09;;;;;;;4.95;1.30;;;;;;;21.90;52.12;96303.81;5115145;28;20027;-31
2023/10/30 06:38:35;;;;;;;4.05;1.15;;;;;;;21.73;52.22;96292.84;5107387;28;20169;-31
2023/10/30 06:41:01;;;;;;;2.95;1.20;;;;;;;21.72;52.43;96299.59;5107628;28;20072;-31
2023/10/30 06:43:27;;;;;;;4.00;1.25;;;;;;;21.92;52.25;96293.03;5107258;28;20459;-31
2023/10/30 06:46:00;;;;;;;7.90;1.25;;;;;;;21.90;52.18;96286.50;5108030;28;20025;-31
2023/10/30 06:48:25;;;;;;;5.55;1.30;;;;;;;21.99;51.71;96283.53;5114209;28;20045;-31
2023/10/30 06:50:51;;;;;;;6.53;1.38;;;;;;;21.95;51.95;96280.25;5107537;28;20492;-31
2023/10/30 06:53:16;;;;;;;6.20;1.10;;;;;;;21.83;52.26;96288.53;5108054;28;20126;-32
2023/10/30 06:55:41;;;;;;;3.97;2.10;;;;;;;21.99;51.96;96286.28;5106771;28;20054;-32
2023/10/30 06:58:07;;;;;;;5.97;1.40;;;;;;;21.93;51.73;96294.53;5110754;28;20078;-31
2023/10/30 07:00:33;;;;;;;4.00;1.17;;;;;;;21.91;52.17;96283.25;5104732;28;20024;-31
2023/10/30 07:02:58;;;;;;;6.05;1.10;;;;;;;21.95;52.03;96294.78;5112065;28;20038;-31
2023/10/30 07:05:24;;;;;;;3.65;1.25;;;;;;;21.91;52.11;96299.06;5109645;28;20411;-31
2023/10/30 07:07:49;;;;;;;6.18;1.45;;;;;;;21.95;52.14;96283.00;5113764;28;20467;-31
2023/10/30 07:10:15;;;;;;;4.43;1.20;;;;;;;21.92;52.42;96295.03;5104348;28;20409;-31
2023/10/30 07:12:40;;;;;;;1.90;0.88;;;;;;;21.99;52.45;96311.16;5110550;28;20023;-31
2023/10/30 07:15:06;;;;;;;3.85;1.10;;;;;;;22.20;51.95;96312.34;5112721;28;20059;-31
2023/10/30 07:17:32;;;;;;;4.05;1.20;;;;;;;21.88;52.54;96300.84;5107215;28;20023;-31
2023/10/30 07:19:57;;;;;;;3.65;1.42;;;;;;;21.93;52.60;96310.34;5113797;28;20027;-32
2023/10/30 07:22:23;;;;;;;5.10;1.40;;;;;;;22.11;52.42;96315.38;5107233;28;20015;-31
2023/10/30 07:24:49;;;;;;;2.75;1.40;;;;;;;22.03;52.23;96308.84;5114337;28;20378;-31
2023/10/30 07:27:14;;;;;;;5.55;1.52;;;;;;;21.91;52.97;96304.59;5106085;28;20024;-31
2023/10/30 07:29:39;;;;;;;5.03;1.55;;;;;;;22.06;52.77;96316.88;5114198;27;20031;-32
2023/10/30 07:32:05;;;;;;;4.82;1.30;;;;;;;22.17;52.33;96299.53;5107108;28;20024;-31
2023/10/30 07:34:30;;;;;;;7.22;1.67;;;;;;;21.92;52.46;96303.31;5113270;28;20150;-31
2023/10/30 07:36:56;;;;;;;2.28;1.30;;;;;;;21.72;52.72;96298.84;5109078;28;20379;-31
2023/10/30 07:39:21;;;;;;;5.78;1.60;;;;;;;22.04;51.09;96297.31;5110725;28;20352;-31
2023/10/30 07:41:47;;;;;;;4.35;2.00;;;;;;;22.02;51.48;96310.13;5106905;28;20035;-31
2023/10/30 07:44:12;;;;;;;5.88;2.17;;;;;;;21.97;51.22;96286.75;5114078;27;20374;-31
2023/10/30 07:46:38;;;;;;;7.00;2.10;;;;;;;22.07;51.33;96293.53;5105846;28;22622;-31
2023/10/30 07:49:04;;;;;;;4.57;2.17;;;;;;;21.92;51.50;96298.56;5113916;27;20031;-31
2023/10/30 07:51:30;;;;;;;6.32;1.90;;;;;;;22.07;50.93;96303.84;5106322;28;20058;-31
2023/10/30 07:53:56;;;;;;;5.13;1.80;;;;;;;21.74;51.59;96291.56;5106162;27;20051;-31
2023/10/30 07:56:22;;;;;;;6.88;1.70;;;;;;;21.91;51.34;96297.06;5113680;28;20012;-31
2023/10/30 07:58:47;;;;;;;4.88;2.60;;;;;;;21.98;50.10;96296.56;5105173;28;20106;-31
2023/10/30 08:01:12;;;;;;;4.05;1.90;;;;;;;22.01;50.61;96286.50;5106473;28;20023;-31
2023/10/30 08:03:38;;;;;;;5.25;1.80;;;;;;;22.07;51.72;96301.06;5106532;28;20024;-31
2023/10/30 08:06:04;;;;;;;7.65;1.80;;;;;;;22.03;50.46;96295.06;5105776;28;20468;-31
2023/10/30 08:08:29;;;;;;;4.28;1.58;;;;;;;22.08;51.04;96297.06;5107924;28;20016;-32
2023/10/30 08:10:55;;;;;;;3.60;1.90;;;;;;;21.94;51.27;96293.28;5110810;28;20030;-31
2023/10/30 08:13:20;;;;;;;7.38;1.65;;;;;;;21.90;51.22;96289.28;5110051;28;20479;-31
2023/10/30 08:15:46;;;;;;;3.70;1.40;;;;;;;21.98;50.56;96293.03;5109799;28;20135;-31
2023/10/30 08:18:12;;;;;;;5.90;2.42;;;;;;;22.03;50.73;96287.53;5104513;28;20053;-31
2023/10/30 08:20:37;;;;;;;5.82;2.35;;;;;;;22.12;50.85;96289.28;5113141;28;20020;-31
2023/10/30 08:23:03;;;;;;;9.90;3.35;;;;;;;21.90;50.77;96292.03;5104757;28;20020;-31
2023/10/30 08:25:28;;;;;;;5.30;2.90;;;;;;;22.18;50.38;96284.47;5105675;28;20046;-32
2023/10/30 08:27:56;;;;;;;17.85;8.73;;;;;;;22.03;50.06;96281.25;5106012;28;20024;-31
2023/10/30 08:30:22;;;;;;;16.02;7.38;;;;;;;22.17;50.78;96288.50;5111930;28;20023;-31
2023/10/30 08:32:48;;;;;;;11.80;6.40;;;;;;;21.95;50.26;96289.28;5105833;28;20049;-31
2023/10/30 08:35:13;;;;;;;10.13;6.15;;;;;;;22.13;50.39;96290.78;5112250;28;20494;-31
2023/10/30 08:37:38;;;;;;;10.32;5.28;;;;;;;22.18;50.70;96288.00;5112514;28;20047;-31
2023/10/30 08:40:06;;;;;;;6.70;3.80;;;;;;;21.77;50.41;96293.31;5106631;28;20070;-32
2023/10/30 08:42:32;;;;;;;5.15;2.92;;;;;;;22.04;50.46;96285.50;5104005;28;20020;-31
2023/10/30 08:44:57;;;;;;;5.85;2.90;;;;;;;22.00;50.60;96290.56;5108468;28;20062;-31
2023/10/30 08:47:23;;;;;;;6.85;2.72;;;;;;;21.97;50.16;96284.00;5102689;28;20028;-32
2023/10/30 08:49:49;;;;;;;6.00;2.30;;;;;;;21.87;50.49;96291.06;5109773;28;20026;-31
2023/10/30 08:52:14;;;;;;;5.07;2.03;;;;;;;21.92;50.44;96289.53;5108067;28;20107;-32
2023/10/30 08:54:42;;;;;;;4.63;1.95;;;;;;;22.11;50.14;96285.75;5111177;28;20059;-32
2023/10/30 08:57:07;;;;;;;4.53;1.75;;;;;;;22.27;50.55;96291.72;5104764;28;20103;-32
2023/10/30 08:59:35;;;;;;;2.28;1.40;;;;;;;22.08;50.46;96272.97;5104835;28;20030;-32
2023/10/30 09:02:01;;;;;;;4.60;1.63;;;;;;;22.05;50.89;96275.97;5111814;28;20023;-31
2023/10/30 09:04:26;;;;;;;5.60;1.48;;;;;;;21.87;50.72;96282.78;5103937;28;20497;-31
2023/10/30 09:06:51;;;;;;;3.65;1.35;;;;;;;22.00;50.92;96279.50;5104031;28;20042;-31
2023/10/30 09:09:17;;;;;;;4.40;1.63;;;;;;;22.17;50.21;96274.69;5098478;28;20030;-31
2023/10/30 09:11:44;;;;;;;4.38;1.52;;;;;;;22.01;50.60;96264.44;5112241;28;20160;-33
2023/10/30 09:14:10;;;;;;;7.07;1.70;;;;;;;22.11;50.70;96262.91;5104037;28;20024;-32
2023/10/30 09:16:35;;;;;;;2.78;1.30;;;;;;;22.17;50.34;96258.09;5106613;28;20379;-34
2023/10/30 09:19:00;;;;;;;7.18;1.55;;;;;;;22.33;50.01;96260.06;5109112;28;20026;-31
2023/10/30 09:21:26;;;;;;;4.65;1.33;;;;;;;22.12;50.88;96256.88;5108802;28;20016;-31
2023/10/30 09:23:52;;;;;;;3.80;1.48;;;;;;;22.29;50.75;96256.81;5108317;28;20028;-32
2023/10/30 09:26:17;;;;;;;5.47;1.23;;;;;;;22.28;50.32;96263.59;5095597;28;20020;-31
2023/10/30 09:28:43;;;;;;;3.15;1.35;;;;;;;22.02;51.51;96252.13;5106150;28;20035;-31
2023/10/30 09:31:08;;;;;;;4.40;1.40;;;;;;;22.10;50.90;96261.41;5109813;28;20026;-32
2023/10/30 09:33:34;;;;;;;5.13;1.52;;;;;;;22.01;50.39;96247.84;5104737;28;20143;-32
2023/10/30 09:35:59;;;;;;;3.20;1.20;;;;;;;22.17;49.90;96260.88;5111777;28;20049;-32
2023/10/30 09:38:25;;;;;;;5.63;1.80;;;;;;;22.14;49.95;96250.81;5103759;28;20115;-31
2023/10/30 09:41:01;;;;;;;5.32;1.60;;;;;;;22.13;50.93;96243.84;5104309;28;20034;-31
2023/10/30 09:43:30;;;;;;;4.53;2.00;;;;;;;22.23;50.22;96245.03;5103740;28;20417;-31
2023/10/30 09:46:00;;;;;;;5.75;1.73;;;;;;;22.33;49.96;96235.19;5104816;28;20024;-31
2023/10/30 09:48:25;;;;;;;6.93;2.08;;;;;;;22.30;49.70;96236.22;5104239;28;20023;-31
2023/10/30 09:50:52;;;;;;;7.05;2.10;;;;;;;22.18;49.84;96234.75;5111336;28;20019;-32
2023/10/30 09:53:18;;;;;;;4.28;1.52;;;;;;;22.29;49.90;96234.72;5111330;28;20130;-31
2023/10/30 09:55:44;;;;;;;5.40;1.50;;;;;;;22.46;49.53;96232.63;5103541;28;20103;-31
2023/10/30 09:58:10;;;;;;;6.72;1.48;;;;;;;22.03;50.00;96239.81;5099953;28;20020;-32
2023/10/30 10:00:36;;;;;;;4.03;1.50;;;;;;;22.24;49.80;96231.97;5108542;28;20027;-31
2023/10/30 10:03:04;;;;;;;4.90;1.40;;;;;;;22.26;49.25;96232.97;5102126;28;20141;-31
2023/10/30 10:05:30;;;;;;;6.50;2.38;;;;;;;22.26;49.86;96223.91;5100287;28;20020;-31
2023/10/30 10:07:56;;;;;;;8.20;2.65;;;;;;;22.32;49.56;96210.84;5108620;28;20080;-31
2023/10/30 10:10:21;;;;;;;5.82;2.45;;;;;;;22.25;49.97;96200.34;5105362;28;20031;-33
2023/10/30 10:12:53;;;;;;;7.18;2.20;;;;;;;22.07;50.43;96205.16;5103944;28;20028;-31
2023/10/30 10:15:20;;;;;;;4.78;2.35;;;;;;;22.37;49.67;96208.06;5104280;28;20019;-31
2023/10/30 10:17:46;;;;;;;7.82;2.10;;;;;;;22.32;49.63;96208.84;5103797;28;20497;-31
2023/10/30 10:20:12;;;;;;;7.80;2.38;;;;;;;22.37;49.27;96210.81;5110286;28;20020;-31
2023/10/30 10:22:38;;;;;;;4.85;1.88;;;;;;;22.18;49.49;96218.19;5103885;28;20031;-31
2023/10/30 10:25:07;;;;;;;6.35;1.95;;;;;;;22.34;49.19;96208.31;5110556;28;20028;-31
2023/10/30 10:27:33;;;;;;;7.22;1.90;;;;;;;22.29;48.54;96201.56;5097408;28;20027;-31
2023/10/30 10:29:59;;;;;;;4.65;1.80;;;;;;;22.32;48.84;96189.50;5111251;28;20420;-33
2023/10/30 10:32:26;;;;;;;6.70;1.50;;;;;;;22.35;48.74;96177.44;5103151;28;20025;-31
2023/10/30 10:35:02;;;;;;;4.47;1.50;;;;;;;22.49;48.30;96170.06;5111168;28;20063;-31
2023/10/30 10:37:29;;;;;;;4.90;1.80;;;;;;;22.33;48.65;96151.56;5103072;28;20016;-31
2023/10/30 10:39:55;;;;;;;7.68;1.13;;;;;;;22.16;48.53;96152.41;5106443;28;20016;-31
2023/10/30 10:42:25;;;;;;;3.53;1.30;;;;;;;22.22;48.32;96157.91;5108005;28;20030;-31
2023/10/30 10:44:53;;;;;;;3.40;1.10;;;;;;;22.16;48.42;96159.94;5101146;28;20020;-33
2023/10/30 10:47:20;;;;;;;6.57;1.55;;;;;;;22.33;48.60;96168.16;5100971;28;20513;-31
2023/10/30 10:49:46;;;;;;;4.68;1.15;;;;;;;22.32;48.05;96150.81;5104027;28;20059;-31
2023/10/30 10:52:14;;;;;;;6.95;1.67;;;;;;;22.32;47.92;96158.34;5103611;28;20510;-31
2023/10/30 10:54:47;;;;;;;5.05;1.27;;;;;;;22.51;47.47;96159.22;5112019;28;20567;-31
2023/10/30 10:57:20;;;;;;;3.58;1.65;;;;;;;22.29;48.07;96160.13;5109399;28;20024;-31
2023/10/30 10:59:47;;;;;;;5.90;1.50;;;;;;;22.21;48.28;96146.09;5105989;28;20486;-31
2023/10/30 11:02:21;;;;;;;3.00;1.38;;;;;;;22.26;48.45;96163.16;5104819;28;20028;-32
2023/10/30 11:04:51;;;;;;;6.35;1.50;;;;;;;22.45;47.98;96145.47;5104751;28;20027;-32
2023/10/30 11:07:57;;;;;;;4.93;1.23;;;;;;;22.35;48.15;96136.00;5114513;27;20027;-31
2023/10/30 11:10:31;;;;;;;4.30;1.30;;;;;;;22.43;48.09;96134.16;5078155;28;20063;-31
2023/10/30 11:13:15;;;;;;;2.50;1.27;;;;;;;22.42;48.19;96127.13;5105289;28;20024;-31
2023/10/30 11:15:49;;;;;;;2.40;1.25;;;;;;;22.51;47.71;96126.81;5110470;28;20019;-31
2023/10/30 11:18:24;;;;;;;4.43;1.10;;;;;;;22.61;47.70;96129.28;5104338;28;20019;-31
2023/10/30 11:21:13;;;;;;;4.82;1.40;;;;;;;22.45;48.07;96128.13;5110756;28;20024;-31
2023/10/30 11:23:58;;;;;;;4.22;1.30;;;;;;;22.54;47.98;96117.50;5109018;28;20016;-31
2023/10/30 11:26:30;;;;;;;4.65;1.27;;;;;;;22.50;48.58;96116.31;5111689;28;20022;-31
2023/10/30 11:28:57;;;;;;;8.77;2.10;;;;;;;22.57;48.63;96110.97;5110234;28;20030;-31
2023/10/30 11:31:22;;;;;;;4.78;1.63;;;;;;;22.58;48.23;96106.94;5112960;28;20076;-31